Augusta, Maine
Current Conditions -  °F | °C
As of 11:53 PM on Wednesday 22 Oct 2014 (Local Time) from KAUG Reporting Station
Haze Haze  
Wind Chill: 35°   Ceiling: 700
Heat Index: 44°   Visibility: 6mi
Dew Point: 43°   Wind: 22mph
Humidity: 96%   Direction: 30°NNE
Pressure: 30.05"   Gusts: 28mph
Location:  44.32°N, 69.78°W
Report Text: KAUG 230353Z AUTO 03019G24KT 6SM BR OVC007 07/06 A3005 RMK AO2 PK WND 02026/0340 RAB05E22 CIG 005V009 SLP179 P0000 T00670061
Loading
Personal Weather Stations






























Interactive Weather Map
Tropical Storm Tracking
New forecast layout! Learn more

10-Day Weather Forecast

Advertisements
Track Severe Weather on mobile